Terminal Aerodrome Forecast
Issued by NWS Springfield, MO

Home | Current Version | Previous Version | Text Only | Print | Product List | Glossary On
Versions: 1 2 3 4 5 6 7 8 9 10 11 12 13 14 15 16 17 18 19 20 21
000
FTUS43 KSGF 251700
TAFSGF
TAF
KSGF 251737Z 2518/2618 18019G28KT P6SM FEW250
     FM252300 17017KT P6SM SCT250 WS020/21045KT
     FM261500 18014KT P6SM OVC015=

USA.gov is the U.S. government's official web portal to all federal, state and local government web resources and services.